Time;durP1;ratioP1;P1;durP2;ratioP2;P2;SDS_P1;SDS_P2;PMS_P1;PMS_P2;Temp;Humidity;BMP_temperature;BMP_pressure;BME280_temperature;BME280_humidity;BME280_pressure;Samples;Min_cycle;Max_cycle;Signal;HPM_P1;HPM_P2
2022/11/20 00:01:41;;;;;;;;;9.25;8.00;;;;;;;;5100211;27;61895;-80
2022/11/20 00:04:08;;;;;;;;;8.75;8.00;;;;;;;;5085171;27;61725;-80
2022/11/20 00:06:33;;;;;;;;;11.00;8.00;;;;;;;;5083063;28;62062;-82
2022/11/20 00:08:59;;;;;;;;;7.75;6.75;;;;;;;;5084103;27;61776;-81
2022/11/20 00:11:26;;;;;;;;;11.75;7.50;;;;;;;;5082835;28;62060;-80
2022/11/20 00:13:52;;;;;;;;;13.00;8.00;;;;;;;;5082577;27;61705;-81
2022/11/20 00:16:19;;;;;;;;;8.00;7.00;;;;;;;;5083518;28;62156;-80
2022/11/20 00:18:45;;;;;;;;;10.00;7.75;;;;;;;;5083302;27;61791;-82
2022/11/20 00:21:12;;;;;;;;;11.25;7.50;;;;;;;;5084374;27;61918;-81
2022/11/20 00:23:37;;;;;;;;;7.75;7.25;;;;;;;;5082729;27;61976;-80
2022/11/20 00:26:03;;;;;;;;;7.75;7.75;;;;;;;;5083157;27;61848;-82
2022/11/20 00:28:28;;;;;;;;;8.75;7.00;;;;;;;;5083321;27;62233;-82
2022/11/20 00:31:00;;;;;;;;;11.00;9.00;;;;;;;;5082582;27;62096;-80
2022/11/20 00:33:25;;;;;;;;;8.00;8.00;;;;;;;;5083866;27;61802;-81
2022/11/20 00:35:50;;;;;;;;;8.75;7.75;;;;;;;;5078002;27;62126;-80
2022/11/20 00:38:15;;;;;;;;;12.25;6.25;;;;;;;;5062278;28;64487;-81
2022/11/20 00:40:41;;;;;;;;;6.50;6.50;;;;;;;;5062319;28;61821;-81
2022/11/20 00:43:06;;;;;;;;;8.00;8.00;;;;;;;;5062810;28;61953;-81
2022/11/20 00:45:31;;;;;;;;;10.25;7.75;;;;;;;;5062707;28;61698;-82
2022/11/20 00:47:56;;;;;;;;;6.75;5.25;;;;;;;;5061508;28;63472;-80
2022/11/20 00:50:22;;;;;;;;;8.50;6.00;;;;;;;;5063262;28;62276;-81
2022/11/20 00:52:47;;;;;;;;;8.75;4.75;;;;;;;;5063528;28;61912;-81
2022/11/20 00:55:12;;;;;;;;;8.50;2.50;;;;;;;;5063870;28;61673;-81
2022/11/20 00:57:38;;;;;;;;;9.00;6.75;;;;;;;;5062003;28;62743;-80
2022/11/20 01:00:03;;;;;;;;;5.50;4.00;;;;;;;;5061911;28;61970;-81
2022/11/20 01:02:28;;;;;;;;;4.00;4.00;;;;;;;;5062140;28;61876;-80
2022/11/20 01:04:54;;;;;;;;;4.00;3.50;;;;;;;;5062475;28;62014;-82
2022/11/20 01:07:19;;;;;;;;;8.00;3.50;;;;;;;;5061667;28;63089;-81
2022/11/20 01:09:44;;;;;;;;;4.75;3.25;;;;;;;;5061826;28;61797;-81
2022/11/20 01:12:09;;;;;;;;;6.75;4.50;;;;;;;;5062497;28;61675;-80
2022/11/20 01:14:35;;;;;;;;;4.00;4.00;;;;;;;;5063617;28;61665;-80
2022/11/20 01:17:00;;;;;;;;;6.00;4.00;;;;;;;;5061260;28;62878;-80
2022/11/20 01:19:25;;;;;;;;;3.75;3.00;;;;;;;;5061499;28;62263;-80
2022/11/20 01:21:52;;;;;;;;;7.75;3.75;;;;;;;;5062870;28;61821;-80
2022/11/20 01:24:18;;;;;;;;;5.50;4.00;;;;;;;;5063645;28;62037;-80
2022/11/20 01:26:44;;;;;;;;;5.25;3.75;;;;;;;;5061667;28;62122;-80
2022/11/20 01:29:14;;;;;;;;;4.75;4.00;;;;;;;;5061251;28;62208;-80
2022/11/20 01:31:39;;;;;;;;;4.00;2.00;;;;;;;;5065716;28;61980;-80
2022/11/20 01:34:05;;;;;;;;;3.50;3.50;;;;;;;;5083281;28;62158;-79
2022/11/20 01:36:31;;;;;;;;;7.00;3.50;;;;;;;;5071231;27;62694;-80
2022/11/20 01:38:58;;;;;;;;;7.00;3.50;;;;;;;;5061630;28;61933;-80
2022/11/20 01:44:10;;;;;;;;;3.25;3.00;;;;;;;;5063049;28;61686;-80
2022/11/20 01:46:36;;;;;;;;;3.75;2.75;;;;;;;;5061133;28;61867;-80
2022/11/20 01:49:13;;;;;;;;;6.50;4.25;;;;;;;;5060869;28;61748;-81
2022/11/20 01:51:43;;;;;;;;;3.25;3.25;;;;;;;;5062782;28;61780;-80
2022/11/20 01:54:18;;;;;;;;;5.00;5.00;;;;;;;;5061522;28;61846;-80
2022/11/20 01:56:44;;;;;;;;;6.00;4.00;;;;;;;;5061615;28;61739;-80
2022/11/20 01:59:10;;;;;;;;;4.00;3.00;;;;;;;;5062407;28;62296;-81
2022/11/20 02:01:36;;;;;;;;;4.00;3.00;;;;;;;;5062963;28;62028;-80
2022/11/20 02:04:02;;;;;;;;;4.75;3.00;;;;;;;;5062724;28;62312;-81
2022/11/20 02:06:30;;;;;;;;;7.00;3.00;;;;;;;;5062237;28;61812;-81
2022/11/20 02:08:55;;;;;;;;;3.00;3.00;;;;;;;;5062259;28;61888;-80
2022/11/20 02:11:21;;;;;;;;;2.00;2.00;;;;;;;;5062465;28;61719;-81
2022/11/20 02:13:46;;;;;;;;;8.25;2.00;;;;;;;;5061062;28;61971;-81
2022/11/20 02:16:21;;;;;;;;;5.00;3.00;;;;;;;;5061482;28;62143;-81
2022/11/20 02:18:46;;;;;;;;;3.25;3.00;;;;;;;;5062118;28;61721;-80
2022/11/20 02:21:41;;;;;;;;;3.00;2.00;;;;;;;;5062181;28;61969;-81
2022/11/20 02:24:12;;;;;;;;;4.25;3.00;;;;;;;;5048497;28;61941;-81
2022/11/20 02:26:51;;;;;;;;;3.00;2.00;;;;;;;;5061485;28;61960;-80
2022/11/20 02:29:19;;;;;;;;;3.00;2.00;;;;;;;;5061781;28;62069;-80
2022/11/20 02:31:44;;;;;;;;;6.75;3.00;;;;;;;;5066899;28;62030;-81
2022/11/20 02:34:10;;;;;;;;;5.50;3.00;;;;;;;;5082696;28;62107;-80
2022/11/20 02:36:36;;;;;;;;;2.00;1.50;;;;;;;;5068083;27;63471;-79
2022/11/20 02:39:02;;;;;;;;;2.75;2.00;;;;;;;;5060137;28;61882;-81
2022/11/20 02:41:46;;;;;;;;;2.50;2.50;;;;;;;;5061783;28;61978;-80
2022/11/20 02:44:12;;;;;;;;;7.25;2.25;;;;;;;;5060798;28;62256;-80
2022/11/20 02:46:37;;;;;;;;;2.00;2.00;;;;;;;;5079668;27;62947;-81
2022/11/20 02:49:02;;;;;;;;;3.00;3.00;;;;;;;;5097660;27;61841;-80
2022/11/20 02:51:28;;;;;;;;;1.25;1.00;;;;;;;;5080433;28;62103;-80
2022/11/20 02:53:53;;;;;;;;;5.75;3.50;;;;;;;;5082060;27;61849;-82
2022/11/20 02:56:18;;;;;;;;;2.25;1.75;;;;;;;;5081445;28;61968;-80
2022/11/20 02:58:43;;;;;;;;;3.50;2.00;;;;;;;;5081947;28;61814;-81
2022/11/20 03:01:09;;;;;;;;;4.00;1.00;;;;;;;;5082177;28;61735;-80
2022/11/20 03:03:34;;;;;;;;;2.00;2.00;;;;;;;;5081985;28;62229;-80
2022/11/20 03:05:59;;;;;;;;;1.75;1.75;;;;;;;;5081457;27;61783;-80
2022/11/20 03:08:25;;;;;;;;;4.50;3.00;;;;;;;;5080117;28;62242;-80
2022/11/20 03:10:50;;;;;;;;;2.75;2.75;;;;;;;;5082228;27;61701;-81
2022/11/20 03:13:15;;;;;;;;;6.00;2.00;;;;;;;;5081678;28;62071;-81
2022/11/20 03:15:42;;;;;;;;;4.00;3.00;;;;;;;;5080933;28;62031;-80
2022/11/20 03:18:07;;;;;;;;;4.00;2.00;;;;;;;;5082277;28;61911;-81
2022/11/20 03:20:33;;;;;;;;;3.00;1.25;;;;;;;;5081394;28;61652;-81
2022/11/20 03:22:59;;;;;;;;;1.75;1.75;;;;;;;;5081854;27;61893;-80
2022/11/20 03:25:24;;;;;;;;;2.00;2.00;;;;;;;;5081074;28;61755;-80
2022/11/20 03:27:49;;;;;;;;;3.00;3.00;;;;;;;;5081378;28;62006;-80
2022/11/20 03:30:15;;;;;;;;;8.00;5.00;;;;;;;;5085713;28;61730;-81
2022/11/20 03:32:40;;;;;;;;;3.00;2.00;;;;;;;;5083723;28;61977;-81
2022/11/20 03:35:06;;;;;;;;;3.75;3.25;;;;;;;;5084319;28;62754;-81
2022/11/20 03:37:31;;;;;;;;;3.00;3.00;;;;;;;;5063141;27;62015;-80
2022/11/20 03:39:57;;;;;;;;;4.00;3.00;;;;;;;;5065213;28;61831;-82
2022/11/20 03:45:06;;;;;;;;;2.00;2.00;;;;;;;;5064298;28;61887;-80
2022/11/20 03:47:31;;;;;;;;;1.75;0.75;;;;;;;;5063397;28;61827;-81
2022/11/20 03:49:56;;;;;;;;;3.00;2.25;;;;;;;;5064456;28;61794;-80
2022/11/20 03:52:22;;;;;;;;;1.00;1.00;;;;;;;;5063406;28;62097;-81
2022/11/20 03:54:47;;;;;;;;;3.00;1.00;;;;;;;;5063960;28;62711;-81
2022/11/20 03:57:12;;;;;;;;;3.50;1.25;;;;;;;;5064049;28;61875;-80
2022/11/20 03:59:37;;;;;;;;;4.25;3.00;;;;;;;;5064570;28;61839;-80
2022/11/20 04:02:03;;;;;;;;;1.25;1.25;;;;;;;;5064494;28;62367;-80
2022/11/20 04:04:28;;;;;;;;;3.00;3.00;;;;;;;;5063479;28;61800;-80
2022/11/20 04:06:53;;;;;;;;;3.00;2.00;;;;;;;;5062351;28;61826;-80
2022/11/20 04:09:18;;;;;;;;;2.00;2.00;;;;;;;;5064510;28;61721;-80
2022/11/20 04:11:44;;;;;;;;;6.25;1.25;;;;;;;;5062156;28;62351;-80
2022/11/20 04:14:15;;;;;;;;;1.00;1.00;;;;;;;;5063597;28;61817;-81
2022/11/20 04:16:42;;;;;;;;;5.25;2.75;;;;;;;;5064037;28;61765;-80
2022/11/20 04:19:10;;;;;;;;;3.75;2.00;;;;;;;;5062168;28;61805;-80
2022/11/20 04:21:35;;;;;;;;;3.00;1.00;;;;;;;;5063971;28;61701;-81
2022/11/20 04:24:00;;;;;;;;;1.50;1.25;;;;;;;;5064182;28;61998;-80
2022/11/20 04:26:27;;;;;;;;;1.00;1.00;;;;;;;;5083672;28;61848;-79
2022/11/20 04:28:52;;;;;;;;;1.00;1.00;;;;;;;;5082664;28;61905;-78
2022/11/20 04:31:19;;;;;;;;;1.00;1.00;;;;;;;;5082074;27;62130;-78
2022/11/20 04:33:44;;;;;;;;;1.50;1.00;;;;;;;;5080330;28;61867;-78
2022/11/20 04:36:11;;;;;;;;;0.75;0.75;;;;;;;;5081920;27;62193;-77
2022/11/20 04:38:36;;;;;;;;;1.75;1.50;;;;;;;;5082317;27;61922;-78
2022/11/20 04:41:03;;;;;;;;;0.75;0.75;;;;;;;;5082117;27;62285;-78
2022/11/20 04:43:29;;;;;;;;;2.75;1.00;;;;;;;;5082594;28;61891;-78
2022/11/20 04:45:55;;;;;;;;;0.75;0.75;;;;;;;;5083461;28;61778;-78
2022/11/20 04:48:20;;;;;;;;;2.00;1.00;;;;;;;;5081583;27;61852;-77
2022/11/20 04:50:45;;;;;;;;;2.00;2.00;;;;;;;;5081709;27;61807;-78
2022/11/20 04:53:11;;;;;;;;;2.00;1.00;;;;;;;;5082276;27;61821;-78
2022/11/20 04:55:37;;;;;;;;;1.00;1.00;;;;;;;;5081843;28;62060;-79
2022/11/20 04:58:08;;;;;;;;;3.75;1.00;;;;;;;;5082902;28;62303;-79
2022/11/20 05:00:34;;;;;;;;;3.00;1.00;;;;;;;;5083836;28;61796;-78
2022/11/20 05:02:59;;;;;;;;;1.00;1.00;;;;;;;;5082179;28;61828;-78
2022/11/20 05:05:25;;;;;;;;;2.75;2.00;;;;;;;;5083256;27;61717;-78
2022/11/20 05:07:54;;;;;;;;;3.00;2.00;;;;;;;;5083514;27;61640;-79
2022/11/20 05:10:20;;;;;;;;;1.00;1.00;;;;;;;;5082250;27;62945;-78
2022/11/20 05:12:45;;;;;;;;;1.00;1.00;;;;;;;;5082165;27;62227;-78
2022/11/20 05:15:10;;;;;;;;;2.75;1.00;;;;;;;;5083183;27;62142;-78
2022/11/20 05:17:36;;;;;;;;;1.00;1.00;;;;;;;;5081722;27;62199;-79
2022/11/20 05:20:01;;;;;;;;;1.25;1.25;;;;;;;;5083259;27;61763;-79
2022/11/20 05:22:26;;;;;;;;;2.50;1.00;;;;;;;;5082664;28;62005;-78
2022/11/20 05:24:51;;;;;;;;;1.00;1.00;;;;;;;;5083587;28;62110;-79
2022/11/20 05:27:17;;;;;;;;;1.00;1.00;;;;;;;;5083321;28;61999;-78
2022/11/20 05:29:42;;;;;;;;;1.75;1.50;;;;;;;;5083598;28;61795;-77
2022/11/20 05:32:09;;;;;;;;;1.00;1.00;;;;;;;;5081862;28;61952;-78
2022/11/20 05:34:34;;;;;;;;;0.50;0.50;;;;;;;;5081792;27;61767;-78
2022/11/20 05:36:59;;;;;;;;;1.00;1.00;;;;;;;;5083333;28;61925;-77
2022/11/20 05:39:25;;;;;;;;;1.00;1.00;;;;;;;;5082241;28;62390;-77
2022/11/20 05:42:29;;;;;;;;;1.75;1.00;;;;;;;;5082563;27;62792;-78
2022/11/20 05:44:35;;;;;;;;;1.50;0.00;;;;;;;;5082817;27;62160;-76
2022/11/20 05:47:00;;;;;;;;;0.75;0.75;;;;;;;;5082868;28;61851;-78
2022/11/20 05:49:26;;;;;;;;;1.00;1.00;;;;;;;;5081325;28;61941;-78
2022/11/20 05:51:51;;;;;;;;;0.50;0.00;;;;;;;;5082093;27;62544;-77
2022/11/20 05:54:16;;;;;;;;;1.00;1.00;;;;;;;;5083191;27;61866;-77
2022/11/20 05:56:42;;;;;;;;;1.50;1.50;;;;;;;;5081346;27;62017;-78
2022/11/20 05:59:07;;;;;;;;;2.00;1.00;;;;;;;;5082969;28;61986;-78
2022/11/20 06:01:32;;;;;;;;;1.75;1.00;;;;;;;;5081977;28;61962;-77
2022/11/20 06:03:57;;;;;;;;;1.00;1.00;;;;;;;;5083278;28;61681;-80
2022/11/20 06:06:23;;;;;;;;;1.00;1.00;;;;;;;;5082706;28;61940;-80
2022/11/20 06:08:48;;;;;;;;;0.00;0.00;;;;;;;;5081826;28;62004;-80
2022/11/20 06:11:14;;;;;;;;;0.75;0.75;;;;;;;;5080860;27;62825;-78
2022/11/20 06:13:40;;;;;;;;;0.25;0.25;;;;;;;;5082328;28;62085;-78
2022/11/20 06:16:05;;;;;;;;;2.00;1.00;;;;;;;;5082415;28;61666;-79
2022/11/20 06:18:30;;;;;;;;;1.00;0.75;;;;;;;;5082298;28;62130;-79
2022/11/20 06:21:00;;;;;;;;;1.50;0.00;;;;;;;;5080727;27;61929;-78
2022/11/20 06:23:27;;;;;;;;;1.00;1.00;;;;;;;;5081388;27;62081;-77
2022/11/20 06:25:52;;;;;;;;;1.00;1.00;;;;;;;;5082707;27;61682;-77
2022/11/20 06:28:17;;;;;;;;;1.50;1.00;;;;;;;;5081462;27;61807;-79
2022/11/20 06:30:45;;;;;;;;;3.50;0.75;;;;;;;;5081119;28;63108;-77
2022/11/20 06:33:11;;;;;;;;;2.50;0.50;;;;;;;;5082150;28;62140;-78
2022/11/20 06:35:36;;;;;;;;;0.00;0.00;;;;;;;;5082549;28;61795;-78
2022/11/20 06:38:01;;;;;;;;;2.00;1.00;;;;;;;;5082639;28;61819;-78
2022/11/20 06:40:26;;;;;;;;;1.25;0.75;;;;;;;;5080418;28;64574;-78
2022/11/20 06:42:53;;;;;;;;;2.00;1.00;;;;;;;;5081961;27;61807;-78
2022/11/20 06:45:18;;;;;;;;;0.00;0.00;;;;;;;;5082153;28;62270;-79
2022/11/20 06:47:43;;;;;;;;;0.75;0.75;;;;;;;;5080980;27;61855;-79
2022/11/20 06:50:09;;;;;;;;;1.00;1.00;;;;;;;;5081548;28;61922;-78
2022/11/20 06:52:34;;;;;;;;;0.00;0.00;;;;;;;;5081836;27;61831;-77
2022/11/20 06:54:59;;;;;;;;;2.00;1.00;;;;;;;;5080819;27;61777;-79
2022/11/20 06:57:25;;;;;;;;;2.00;1.50;;;;;;;;5080921;27;61977;-78
2022/11/20 06:59:50;;;;;;;;;2.25;1.00;;;;;;;;5080942;28;61680;-80
2022/11/20 07:02:15;;;;;;;;;3.00;1.25;;;;;;;;5082115;27;62087;-80
2022/11/20 07:04:40;;;;;;;;;2.25;1.00;;;;;;;;5084939;28;61995;-80
2022/11/20 07:07:06;;;;;;;;;2.50;1.00;;;;;;;;5084494;27;61711;-81
2022/11/20 07:09:32;;;;;;;;;1.25;0.75;;;;;;;;5083627;27;62740;-86
2022/11/20 07:11:57;;;;;;;;;2.50;2.00;;;;;;;;5084117;28;62056;-84
2022/11/20 07:14:22;;;;;;;;;1.50;1.50;;;;;;;;5083863;27;61787;-80
2022/11/20 07:16:47;;;;;;;;;3.50;2.00;;;;;;;;5084618;27;62155;-81
2022/11/20 07:19:13;;;;;;;;;1.25;1.00;;;;;;;;5084447;27;61964;-83
2022/11/20 07:21:38;;;;;;;;;2.75;2.25;;;;;;;;5084425;27;61746;-85
2022/11/20 07:24:03;;;;;;;;;8.50;2.00;;;;;;;;5085792;28;61950;-85
2022/11/20 07:26:29;;;;;;;;;11.25;2.00;;;;;;;;5084392;27;62055;-84
2022/11/20 07:28:54;;;;;;;;;1.00;1.00;;;;;;;;5084279;28;61946;-86
2022/11/20 07:31:19;;;;;;;;;1.00;1.00;;;;;;;;5085504;27;61705;-82
2022/11/20 07:33:44;;;;;;;;;1.75;1.00;;;;;;;;5085138;28;61843;-82
2022/11/20 07:36:10;;;;;;;;;6.00;1.00;;;;;;;;5085608;28;61735;-83
2022/11/20 07:38:36;;;;;;;;;1.00;1.00;;;;;;;;5083686;27;62952;-82
2022/11/20 07:41:02;;;;;;;;;2.00;1.00;;;;;;;;5084095;27;62014;-81
2022/11/20 07:43:27;;;;;;;;;2.00;1.00;;;;;;;;5083292;27;61998;-81
2022/11/20 07:45:55;;;;;;;;;3.00;2.50;;;;;;;;5084769;28;61940;-81
2022/11/20 07:48:20;;;;;;;;;1.75;1.75;;;;;;;;5083055;27;62077;-81
2022/11/20 07:50:45;;;;;;;;;1.00;1.00;;;;;;;;5100435;27;61771;-83
2022/11/20 07:53:12;;;;;;;;;3.50;1.00;;;;;;;;5083912;27;61803;-84
2022/11/20 07:55:37;;;;;;;;;1.00;1.00;;;;;;;;5085463;27;61983;-82
2022/11/20 07:58:03;;;;;;;;;1.00;1.00;;;;;;;;5082219;27;63062;-81
2022/11/20 08:00:28;;;;;;;;;1.00;1.00;;;;;;;;5083815;28;61771;-83
2022/11/20 08:02:53;;;;;;;;;3.25;2.00;;;;;;;;5083715;28;61754;-81
2022/11/20 08:05:19;;;;;;;;;3.25;2.00;;;;;;;;5085548;27;62077;-86
2022/11/20 08:07:44;;;;;;;;;1.00;1.00;;;;;;;;5084356;27;62876;-86
2022/11/20 08:10:11;;;;;;;;;1.50;1.50;;;;;;;;5083586;27;61911;-85
2022/11/20 08:15:27;;;;;;;;;2.25;1.25;;;;;;;;5081768;27;61803;-79
2022/11/20 08:17:58;;;;;;;;;2.50;1.00;;;;;;;;5084142;28;61906;-78
2022/11/20 08:20:23;;;;;;;;;2.00;2.00;;;;;;;;5084405;28;61957;-81
2022/11/20 08:22:49;;;;;;;;;2.75;1.50;;;;;;;;5083381;27;61774;-81
2022/11/20 08:25:14;;;;;;;;;4.00;2.25;;;;;;;;5084573;28;61793;-81
2022/11/20 08:27:39;;;;;;;;;2.00;2.00;;;;;;;;5082554;28;62426;-80
2022/11/20 08:30:05;;;;;;;;;1.50;1.50;;;;;;;;5084762;28;61791;-81
2022/11/20 08:32:30;;;;;;;;;3.25;2.25;;;;;;;;5082838;27;62316;-79
2022/11/20 08:34:57;;;;;;;;;1.75;1.75;;;;;;;;5084715;28;61777;-80
2022/11/20 08:37:22;;;;;;;;;2.00;1.75;;;;;;;;5083874;27;62647;-83
2022/11/20 08:39:47;;;;;;;;;1.50;1.50;;;;;;;;5084344;28;61791;-79
2022/11/20 08:42:13;;;;;;;;;1.75;1.75;;;;;;;;5084213;27;62062;-83
2022/11/20 08:44:38;;;;;;;;;4.75;2.00;;;;;;;;5083085;27;61887;-80
2022/11/20 08:47:03;;;;;;;;;5.25;4.50;;;;;;;;5082385;27;63699;-81
2022/11/20 08:49:29;;;;;;;;;2.50;2.25;;;;;;;;5081821;27;62005;-79
2022/11/20 08:51:55;;;;;;;;;2.00;2.00;;;;;;;;5083120;27;61799;-83
2022/11/20 08:54:21;;;;;;;;;2.75;2.00;;;;;;;;5084097;27;61838;-84
2022/11/20 08:56:47;;;;;;;;;2.00;2.00;;;;;;;;5081007;27;62864;-82
2022/11/20 08:59:12;;;;;;;;;7.00;3.25;;;;;;;;5082102;27;61858;-79
2022/11/20 09:01:38;;;;;;;;;4.00;3.00;;;;;;;;5081676;27;62730;-81
2022/11/20 09:04:04;;;;;;;;;4.25;2.00;;;;;;;;5083042;27;61814;-83
2022/11/20 09:06:30;;;;;;;;;2.50;2.50;;;;;;;;5083068;28;63189;-83
2022/11/20 09:08:56;;;;;;;;;4.00;2.50;;;;;;;;5082248;28;61982;-82
2022/11/20 09:11:22;;;;;;;;;3.00;3.00;;;;;;;;5083635;28;61894;-80
2022/11/20 09:13:47;;;;;;;;;3.00;3.00;;;;;;;;5083528;28;61997;-83
2022/11/20 09:16:13;;;;;;;;;4.00;4.00;;;;;;;;5080091;28;64349;-82
2022/11/20 09:18:38;;;;;;;;;5.25;2.25;;;;;;;;5081411;28;61922;-81
2022/11/20 09:21:10;;;;;;;;;4.25;4.25;;;;;;;;5082039;27;61814;-83
2022/11/20 09:23:36;;;;;;;;;6.25;4.00;;;;;;;;5080793;28;61859;-83
2022/11/20 09:26:12;;;;;;;;;6.00;3.25;;;;;;;;5079791;27;63569;-80
2022/11/20 09:28:37;;;;;;;;;6.25;4.00;;;;;;;;5078973;27;62071;-86
2022/11/20 09:31:13;;;;;;;;;7.25;4.50;;;;;;;;5079245;27;62005;-85
2022/11/20 09:33:39;;;;;;;;;7.50;6.50;;;;;;;;5081245;28;61907;-80
2022/11/20 09:36:04;;;;;;;;;7.75;4.50;;;;;;;;5080080;27;63658;-84
2022/11/20 09:38:30;;;;;;;;;11.25;8.00;;;;;;;;5080281;27;62106;-82
2022/11/20 09:40:58;;;;;;;;;14.75;7.50;;;;;;;;5080844;28;61254;-84
2022/11/20 09:43:42;;;;;;;;;6.25;4.50;;;;;;;;5082696;28;62192;-80
2022/11/20 09:46:40;;;;;;;;;6.00;6.00;;;;;;;;5082110;27;62992;-83
2022/11/20 09:49:11;;;;;;;;;11.50;10.75;;;;;;;;5039299;28;61792;-79
2022/11/20 09:51:44;;;;;;;;;5.50;5.50;;;;;;;;5040365;28;61984;-79
2022/11/20 09:54:30;;;;;;;;;12.00;7.75;;;;;;;;5040031;28;61986;-80
2022/11/20 09:56:59;;;;;;;;;6.00;5.25;;;;;;;;5034301;28;62889;-80
2022/11/20 09:59:40;;;;;;;;;8.25;6.25;;;;;;;;5031872;28;61999;-80
2022/11/20 10:02:28;;;;;;;;;5.00;4.00;;;;;;;;5031122;28;62103;-80
2022/11/20 10:05:03;;;;;;;;;9.50;8.75;;;;;;;;5012734;28;62699;-81
2022/11/20 10:07:38;;;;;;;;;10.25;5.00;;;;;;;;5032123;28;62070;-82
2022/11/20 10:10:03;;;;;;;;;10.00;8.00;;;;;;;;5029025;28;63210;-81
2022/11/20 10:12:46;;;;;;;;;4.00;4.00;;;;;;;;5027977;28;62058;-81
2022/11/20 10:15:19;;;;;;;;;8.50;6.50;;;;;;;;4994028;28;61906;-81
2022/11/20 10:18:00;;;;;;;;;8.00;8.00;;;;;;;;5033607;28;62833;-81
2022/11/20 10:20:47;;;;;;;;;9.00;5.50;;;;;;;;5031203;28;61844;-82
2022/11/20 10:23:39;;;;;;;;;10.00;7.00;;;;;;;;5030121;28;61900;-85
2022/11/20 10:26:16;;;;;;;;;7.25;6.50;;;;;;;;4986912;28;62906;-87
2022/11/20 10:29:01;;;;;;;;;9.00;5.00;;;;;;;;5077038;27;61854;-84
2022/11/20 10:31:26;;;;;;;;;6.50;4.50;;;;;;;;5078200;28;61881;-85
2022/11/20 10:33:53;;;;;;;;;4.00;4.00;;;;;;;;5079906;27;62255;-86
2022/11/20 10:36:21;;;;;;;;;6.50;3.25;;;;;;;;5077705;27;61760;-86
2022/11/20 10:38:46;;;;;;;;;5.75;3.50;;;;;;;;5078692;28;62145;-82
2022/11/20 10:41:25;;;;;;;;;5.75;4.75;;;;;;;;5079959;28;62032;-86
2022/11/20 10:44:00;;;;;;;;;6.00;3.00;;;;;;;;5080372;28;61878;-83
2022/11/20 10:46:32;;;;;;;;;3.00;3.00;;;;;;;;5072149;28;61919;-83
2022/11/20 10:48:58;;;;;;;;;3.75;2.50;;;;;;;;5078824;28;62033;-86
2022/11/20 10:51:36;;;;;;;;;4.50;2.75;;;;;;;;5077661;27;61843;-81
2022/11/20 10:54:05;;;;;;;;;3.00;2.00;;;;;;;;5080705;28;62326;-80
2022/11/20 10:56:46;;;;;;;;;2.25;2.25;;;;;;;;5079876;27;62135;-89
2022/11/20 10:59:27;;;;;;;;;6.25;3.00;;;;;;;;5076601;28;62678;-86
2022/11/20 11:01:53;;;;;;;;;5.75;3.00;;;;;;;;5079514;28;62404;-88
2022/11/20 11:04:40;;;;;;;;;3.25;2.00;;;;;;;;5079410;28;61934;-84
2022/11/20 11:07:24;;;;;;;;;2.50;2.00;;;;;;;;5075706;28;62131;-84
2022/11/20 11:09:52;;;;;;;;;5.50;2.00;;;;;;;;5075583;28;62192;-82
2022/11/20 11:12:18;;;;;;;;;2.00;2.00;;;;;;;;5076115;28;62986;-83
2022/11/20 11:14:44;;;;;;;;;3.75;3.00;;;;;;;;5076692;27;62034;-82
2022/11/20 11:17:20;;;;;;;;;2.00;1.75;;;;;;;;5076660;28;61912;-85
2022/11/20 11:19:45;;;;;;;;;1.00;1.00;;;;;;;;5076407;28;62523;-85
2022/11/20 11:22:17;;;;;;;;;6.00;2.00;;;;;;;;5078401;27;61855;-83
2022/11/20 11:24:51;;;;;;;;;1.00;1.00;;;;;;;;5076705;27;61855;-82
2022/11/20 11:27:17;;;;;;;;;2.00;2.00;;;;;;;;5078807;27;61868;-83
2022/11/20 11:29:42;;;;;;;;;1.00;1.00;;;;;;;;5076731;28;64088;-84
2022/11/20 11:32:11;;;;;;;;;1.00;1.00;;;;;;;;5078201;28;62546;-83
2022/11/20 11:34:38;;;;;;;;;1.00;1.00;;;;;;;;5076717;28;61945;-82
2022/11/20 11:37:04;;;;;;;;;2.50;1.00;;;;;;;;5072503;28;62011;-83
2022/11/20 11:39:30;;;;;;;;;1.25;1.00;;;;;;;;5073217;28;63819;-85
2022/11/20 11:42:04;;;;;;;;;4.00;2.00;;;;;;;;5072736;28;61937;-84
2022/11/20 11:47:32;;;;;;;;;3.75;1.00;;;;;;;;5075001;28;61885;-85
2022/11/20 11:50:21;;;;;;;;;0.75;0.75;;;;;;;;5075832;27;61972;-85
2022/11/20 11:53:05;;;;;;;;;1.00;1.00;;;;;;;;5078294;27;62103;-82
2022/11/20 11:55:37;;;;;;;;;1.00;1.00;;;;;;;;5076758;28;62066;-83
2022/11/20 11:58:06;;;;;;;;;1.00;1.00;;;;;;;;5080799;28;62018;-83
2022/11/20 12:00:32;;;;;;;;;1.00;1.00;;;;;;;;5081825;27;61993;-85
2022/11/20 12:03:07;;;;;;;;;3.00;1.00;;;;;;;;5083130;28;62259;-79
2022/11/20 12:05:39;;;;;;;;;2.00;1.00;;;;;;;;5082076;27;62090;-77
2022/11/20 12:08:14;;;;;;;;;1.00;1.00;;;;;;;;5082412;27;62094;-79
2022/11/20 12:10:55;;;;;;;;;1.50;1.50;;;;;;;;5082534;28;63352;-79
2022/11/20 12:13:39;;;;;;;;;1.75;1.00;;;;;;;;5082163;27;61821;-78
2022/11/20 12:16:05;;;;;;;;;2.25;2.00;;;;;;;;5082519;28;61804;-82
2022/11/20 12:18:30;;;;;;;;;1.75;1.75;;;;;;;;5082146;27;61780;-77
2022/11/20 12:21:31;;;;;;;;;3.25;1.75;;;;;;;;5083993;28;62125;-76
2022/11/20 12:23:56;;;;;;;;;1.00;1.00;;;;;;;;5020571;28;62138;-82
2022/11/20 12:26:42;;;;;;;;;3.00;1.25;;;;;;;;5021090;28;61756;-78
2022/11/20 12:29:08;;;;;;;;;6.25;3.00;;;;;;;;5020855;28;61936;-75
2022/11/20 12:31:33;;;;;;;;;4.00;1.75;;;;;;;;5020713;28;61839;-77
2022/11/20 12:34:13;;;;;;;;;2.00;1.50;;;;;;;;5034860;28;62100;-75
2022/11/20 12:36:52;;;;;;;;;2.25;2.00;;;;;;;;5021443;28;61969;-75
2022/11/20 12:39:20;;;;;;;;;3.00;3.00;;;;;;;;5027967;28;62319;-77
2022/11/20 12:47:49;;;;;;;;;3.25;3.25;;;;;;;;5022193;28;61728;-83
2022/11/20 12:50:26;;;;;;;;;5.75;3.00;;;;;;;;4944512;28;62012;-75
2022/11/20 12:52:57;;;;;;;;;8.75;6.50;;;;;;;;4956778;28;61955;-77
2022/11/20 12:55:25;;;;;;;;;9.25;5.00;;;;;;;;4947283;28;62106;-76
2022/11/20 12:57:56;;;;;;;;;4.00;4.00;;;;;;;;4962491;28;62177;-76
2022/11/20 13:00:24;;;;;;;;;6.00;5.00;;;;;;;;5026011;28;62101;-76
2022/11/20 13:02:52;;;;;;;;;6.50;2.50;;;;;;;;5028374;28;63558;-79
2022/11/20 13:05:18;;;;;;;;;5.00;3.75;;;;;;;;5012175;28;62500;-80
2022/11/20 13:07:44;;;;;;;;;3.25;3.00;;;;;;;;5019360;28;62094;-75
2022/11/20 13:10:21;;;;;;;;;3.25;3.00;;;;;;;;5036211;28;62002;-77
2022/11/20 13:12:51;;;;;;;;;6.00;4.50;;;;;;;;5019803;28;64162;-77
2022/11/20 13:15:35;;;;;;;;;4.00;4.00;;;;;;;;5036986;28;61823;-77
2022/11/20 13:18:02;;;;;;;;;12.50;5.25;;;;;;;;5033439;28;61991;-78
2022/11/20 13:20:29;;;;;;;;;4.75;4.00;;;;;;;;5009506;28;63279;-80
2022/11/20 13:22:56;;;;;;;;;11.25;6.00;;;;;;;;5012982;28;63200;-79
2022/11/20 13:25:25;;;;;;;;;5.50;4.75;;;;;;;;5032647;28;62075;-80
2022/11/20 13:27:52;;;;;;;;;7.50;6.00;;;;;;;;5062647;28;62093;-79
2022/11/20 13:30:20;;;;;;;;;8.25;5.25;;;;;;;;5078927;27;61924;-80
2022/11/20 13:32:51;;;;;;;;;7.75;7.00;;;;;;;;5074948;27;61894;-80
2022/11/20 13:35:32;;;;;;;;;4.00;3.00;;;;;;;;5077418;27;61925;-80
2022/11/20 13:38:07;;;;;;;;;3.75;3.00;;;;;;;;5090191;27;63036;-80
2022/11/20 13:40:33;;;;;;;;;8.25;6.00;;;;;;;;5078062;28;62098;-79
2022/11/20 13:43:17;;;;;;;;;4.50;4.50;;;;;;;;5075268;27;62694;-83
2022/11/20 13:45:53;;;;;;;;;4.00;4.00;;;;;;;;5078703;28;62334;-80
2022/11/20 13:48:23;;;;;;;;;4.50;3.00;;;;;;;;5082258;27;62220;-82
2022/11/20 13:50:58;;;;;;;;;10.00;7.00;;;;;;;;5090183;27;61794;-81
2022/11/20 13:53:44;;;;;;;;;5.25;3.00;;;;;;;;5075772;28;62119;-79
2022/11/20 13:56:24;;;;;;;;;10.00;5.25;;;;;;;;5071634;27;62307;-79
2022/11/20 13:58:53;;;;;;;;;5.75;4.75;;;;;;;;5079168;28;62129;-79
2022/11/20 14:01:26;;;;;;;;;5.50;5.50;;;;;;;;5076824;28;61846;-79
2022/11/20 14:03:52;;;;;;;;;8.75;6.25;;;;;;;;5079056;27;62065;-79
2022/11/20 14:06:25;;;;;;;;;6.50;5.00;;;;;;;;5076041;28;62197;-79
2022/11/20 14:08:51;;;;;;;;;5.25;4.25;;;;;;;;5081960;28;61951;-79
2022/11/20 14:11:18;;;;;;;;;4.50;3.50;;;;;;;;5081391;27;61801;-79
2022/11/20 14:13:58;;;;;;;;;4.75;3.50;;;;;;;;5079245;28;63646;-79
2022/11/20 14:16:25;;;;;;;;;6.50;4.75;;;;;;;;5073443;28;62000;-79
2022/11/20 14:18:50;;;;;;;;;10.50;8.00;;;;;;;;5081112;28;61780;-79
2022/11/20 14:21:29;;;;;;;;;8.75;4.00;;;;;;;;5079059;27;61968;-79
2022/11/20 14:24:14;;;;;;;;;1.50;1.25;;;;;;;;5075536;28;63437;-79
2022/11/20 14:26:44;;;;;;;;;4.25;4.00;;;;;;;;5079048;28;62124;-79
2022/11/20 14:29:21;;;;;;;;;10.25;4.50;;;;;;;;5077445;28;62118;-79
2022/11/20 14:31:47;;;;;;;;;5.50;4.00;;;;;;;;5078611;28;62510;-79
2022/11/20 14:34:18;;;;;;;;;10.75;4.00;;;;;;;;5077460;28;61808;-79
2022/11/20 14:36:43;;;;;;;;;8.00;6.75;;;;;;;;5080790;28;61831;-79
2022/11/20 14:39:12;;;;;;;;;6.00;3.00;;;;;;;;5079714;27;61863;-79
2022/11/20 14:41:37;;;;;;;;;7.75;6.25;;;;;;;;5076732;28;62193;-79
2022/11/20 14:44:04;;;;;;;;;9.75;3.75;;;;;;;;5079008;28;61949;-78
2022/11/20 14:46:30;;;;;;;;;6.50;6.50;;;;;;;;5079727;27;61771;-79
2022/11/20 14:48:57;;;;;;;;;6.00;6.00;;;;;;;;5079234;28;61804;-79
2022/11/20 14:51:34;;;;;;;;;9.25;5.00;;;;;;;;5078221;27;61785;-79
2022/11/20 14:54:23;;;;;;;;;6.75;4.50;;;;;;;;5077873;27;62584;-79
2022/11/20 14:56:56;;;;;;;;;7.25;6.75;;;;;;;;5080387;28;61727;-79
2022/11/20 14:59:25;;;;;;;;;6.50;5.75;;;;;;;;5077451;28;61899;-79
2022/11/20 15:01:55;;;;;;;;;5.25;4.00;;;;;;;;5080727;28;61729;-79
2022/11/20 15:04:20;;;;;;;;;8.50;5.50;;;;;;;;5080439;28;62260;-79
2022/11/20 15:06:53;;;;;;;;;8.50;4.25;;;;;;;;5079921;27;61804;-79
2022/11/20 15:09:18;;;;;;;;;13.50;10.00;;;;;;;;5079905;28;62041;-79